Terminal Aerodrome Forecast
Issued by NWS

Home | Current Version | Previous Version | Text Only | Print | Product List | Glossary On
Versions: 1 2 3 4 5 6 7 8 9 10 11 12 13 14
000
FTUS46 KHNX 241730
TAFVIS
TAF
KVIS 241730Z 2418/2518 15006KT P6SM OVC070
     FM250300 11012KT 5SM -RA OVC050
     FM250900 12005KT P6SM -SHRA BKN040 OVC050
     FM251200 12006KT P6SM BKN050=

USA.gov is the U.S. government's official web portal to all federal, state and local government web resources and services.